Site contains unofficial IBTrACS data. Visit the IBTrACS Website to access archived data.

1884 NOT_NAMED (1884186N16125)


IBTrACS version v04r00. Visit IBTrACS website for data access.
Please direct all questions to the IBTrACS Q and A forum

Storm track - Intensity - Wind Radii - Intensity Data - Source Data - All data

Summary Information

Storm ID 1884186N16125
Start Jul 3 16Z
Landfall Jul 4 09Z, Jul 7 18Z
End Jul 8 04Z
ATCF IDs
Track status Best track data.

Storm track plot

Map of storm track

Intensity plots

No Intensity information for this storm


Radial wind information

No radial wind information for this storm


Position and Intensity Table

BASIN ISO_TIME_________ NATURE LAT LON
degrees north degrees east
WP 1884-07-03 16:00:00 NR 16.10 125.20
WP 18:00:00 NR 16.11 124.88
WP 21:00:00 NR 16.13 124.38
WP 1884-07-04 00:00:00 NR 16.15 123.86
WP 03:00:00 NR 16.19 123.30
WP 04:00:00 NR 16.20 123.10
WP 06:00:00 NR 16.23 122.68
WP 09:00:00 NR 16.29 122.03
WP 12:00:00 NR 16.37 121.38
WP 15:00:00 NR 16.46 120.78
WP 16:00:00 NR 16.50 120.60
WP 18:00:00 NR 16.58 120.27
WP 21:00:00 NR 16.73 119.84
WP 1884-07-05 00:00:00 NR 16.88 119.46
WP 03:00:00 NR 17.05 119.11
WP 04:00:00 NR 17.10 119.00
WP 06:00:00 NR 17.20 118.76
WP 09:00:00 NR 17.35 118.43
WP 12:00:00 NR 17.50 118.11
WP 15:00:00 NR 17.65 117.80
WP 16:00:00 NR 17.70 117.70
WP 18:00:00 NR 17.81 117.50
WP 21:00:00 NR 17.97 117.21
WP 1884-07-06 00:00:00 NR 18.12 116.91
WP 03:00:00 NR 18.26 116.61
WP 04:00:00 NR 18.30 116.50
WP 06:00:00 NR 18.37 116.28
WP 09:00:00 NR 18.47 115.95
WP 12:00:00 NR 18.54 115.59
WP 15:00:00 NR 18.59 115.23
WP 16:00:00 NR 18.60 115.10
WP 18:00:00 NR 18.61 114.87
WP 21:00:00 NR 18.60 114.52
WP 1884-07-07 00:00:00 NR 18.58 114.13
WP 03:00:00 NR 18.59 113.67
WP 04:00:00 NR 18.60 113.50
WP 06:00:00 NR 18.62 113.10
WP 09:00:00 NR 18.67 112.44
WP 12:00:00 NR 18.77 111.73
WP 15:00:00 NR 18.93 111.02
WP 16:00:00 NR 19.00 110.80
WP 18:00:00 NR 19.17 110.37
WP 21:00:00 NR 19.49 109.78
WP 1884-07-08 00:00:00 NR 19.86 109.22
WP 03:00:00 NR 20.26 108.68
WP 04:00:00 NR 20.40 108.50

Source Information

Agency Information
USA
TOKYO
CMA
HKO
NEWDELHI
REUNION
BOM
NADI
WELLINGTON
DS824
TD9636 cons_worldwide_trop_cyclone_18710101-19891231-003:Line=13
TD9635
NEUMANN
MLC

All available IBTrACS Data

SEASON BASIN SUBBASIN ISO_TIME_________ NATURE LAT LON DIST2LAND LANDFALL IFLAG USA SSHS TD9636 LAT TD9636 LON TD9636 STAGE STORM SPEED STORM DIR
Year degrees north degrees east km km 1 degrees north degrees east kts degrees
1884 WP MM 1884-07-03 16:00:00 NR 16.10 125.20 254 243 __________O___ -1 16.10 125.20 4 9 272
1884 WP MM 18:00:00 NR 16.11 124.88 243 221 __________P___ -1 16.11 124.88 4 9 272
1884 WP MM 21:00:00 NR 16.13 124.38 221 168 __________P___ -1 16.13 124.38 4 10 273
1884 WP MM 1884-07-04 00:00:00 NR 16.15 123.86 168 115 __________P___ -1 16.15 123.86 4 10 273
1884 WP MM 03:00:00 NR 16.19 123.30 115 96 __________P___ -1 16.19 123.30 4 11 274
1884 WP MM 04:00:00 NR 16.20 123.10 96 53 __________O___ -1 16.20 123.10 4 12 274
1884 WP MM 06:00:00 NR 16.23 122.68 53 0 __________P___ -1 16.23 122.68 4 12 275
1884 WP MM 09:00:00 NR 16.29 122.03 0 0 __________P___ -1 16.29 122.03 4 13 276
1884 WP MM 12:00:00 NR 16.37 121.38 0 0 __________P___ -1 16.37 121.38 4 12 278
1884 WP MM 15:00:00 NR 16.46 120.78 0 0 __________P___ -1 16.46 120.78 4 11 280
1884 WP MM 16:00:00 NR 16.50 120.60 0 0 __________O___ -1 16.50 120.60 4 10 284
1884 WP MM 18:00:00 NR 16.58 120.27 0 10 __________P___ -1 16.58 120.27 4 9 287
1884 WP MM 21:00:00 NR 16.73 119.84 44 44 __________P___ -1 16.73 119.84 4 8 291
1884 WP MM 1884-07-05 00:00:00 NR 16.88 119.46 74 79 __________P___ -1 16.88 119.46 4 8 295
1884 WP MM 03:00:00 NR 17.05 119.11 108 116 __________P___ -1 17.05 119.11 4 7 296
1884 WP MM 04:00:00 NR 17.10 119.00 123 123 __________O___ -1 17.10 119.00 4 7 295
1884 WP MM 06:00:00 NR 17.20 118.76 146 154 __________P___ -1 17.20 118.76 4 7 295
1884 WP MM 09:00:00 NR 17.35 118.43 186 193 __________P___ -1 17.35 118.43 4 7 296
1884 WP MM 12:00:00 NR 17.50 118.11 225 225 __________P___ -1 17.50 118.11 4 7 297
1884 WP MM 15:00:00 NR 17.65 117.80 257 264 __________P___ -1 17.65 117.80 4 7 297
1884 WP MM 16:00:00 NR 17.70 117.70 272 272 __________O___ -1 17.70 117.70 4 7 299
1884 WP MM 18:00:00 NR 17.81 117.50 296 296 __________P___ -1 17.81 117.50 4 7 300
1884 WP MM 21:00:00 NR 17.97 117.21 331 331 __________P___ -1 17.97 117.21 4 6 299
1884 WP MM 1884-07-06 00:00:00 NR 18.12 116.91 364 364 __________P___ -1 18.12 116.91 4 6 297
1884 WP MM 03:00:00 NR 18.26 116.61 399 399 __________P___ -1 18.26 116.61 4 6 294
1884 WP MM 04:00:00 NR 18.30 116.50 409 409 __________O___ -1 18.30 116.50 4 7 291
1884 WP MM 06:00:00 NR 18.37 116.28 432 432 __________P___ -1 18.37 116.28 4 7 288
1884 WP MM 09:00:00 NR 18.47 115.95 456 446 __________P___ -1 18.47 115.95 4 7 284
1884 WP MM 12:00:00 NR 18.54 115.59 446 424 __________P___ -1 18.54 115.59 4 7 280
1884 WP MM 15:00:00 NR 18.59 115.23 424 422 __________P___ -1 18.59 115.23 4 7 277
1884 WP MM 16:00:00 NR 18.60 115.10 422 418 __________O___ -1 18.60 115.10 4 7 273
1884 WP MM 18:00:00 NR 18.61 114.87 418 384 __________P___ -1 18.61 114.87 4 7 270
1884 WP MM 21:00:00 NR 18.60 114.52 384 344 __________P___ -1 18.60 114.52 4 7 268
1884 WP MM 1884-07-07 00:00:00 NR 18.58 114.13 344 304 __________P___ -1 18.58 114.13 4 8 270
1884 WP MM 03:00:00 NR 18.59 113.67 304 285 __________P___ -1 18.59 113.67 4 9 272
1884 WP MM 04:00:00 NR 18.60 113.50 285 247 __________O___ -1 18.60 113.50 4 11 273
1884 WP MM 06:00:00 NR 18.62 113.10 247 178 __________P___ -1 18.62 113.10 4 12 274
1884 WP MM 09:00:00 NR 18.67 112.44 178 114 __________P___ -1 18.67 112.44 4 13 277
1884 WP MM 12:00:00 NR 18.77 111.73 114 43 __________P___ -1 18.77 111.73 4 14 281
1884 WP MM 15:00:00 NR 18.93 111.02 43 21 __________P___ -1 18.93 111.02 4 14 285
1884 WP MM 16:00:00 NR 19.00 110.80 21 0 __________O___ -1 19.00 110.80 4 13 292
1884 WP MM 18:00:00 NR 19.17 110.37 0 0 __________P___ -1 19.17 110.37 4 13 297
1884 WP MM 21:00:00 NR 19.49 109.78 0 0 __________P___ -1 19.49 109.78 4 13 302
1884 WP MM 1884-07-08 00:00:00 NR 19.86 109.22 15 15 __________P___ -1 19.86 109.22 4 13 307
1884 WP MM 03:00:00 NR 20.26 108.68 83 91 __________P___ -1 20.26 108.68 4 13 309
1884 WP MM 04:00:00 NR 20.40 108.50 107 __________O___ -1 20.40 108.50 4 13 309